sensor_id;sensor_type;location;lat;lon;timestamp;pressure;altitude;pressure_sealevel;temperature;humidity
45369;BME280;51342;55.250;37.668;2023-02-17T00:03:53;100404.13;;;-10.92;67.38
45369;BME280;51342;55.250;37.668;2023-02-17T00:06:28;100422.72;;;-10.90;67.27
45369;BME280;51342;55.250;37.668;2023-02-17T00:08:59;100415.25;;;-10.85;67.46
45369;BME280;51342;55.250;37.668;2023-02-17T00:11:32;100417.06;;;-10.84;67.34
45369;BME280;51342;55.250;37.668;2023-02-17T00:14:04;100415.03;;;-10.81;67.43
45369;BME280;51342;55.250;37.668;2023-02-17T00:16:37;100419.34;;;-10.80;67.26
45369;BME280;51342;55.250;37.668;2023-02-17T00:19:09;100413.22;;;-10.82;67.29
45369;BME280;51342;55.250;37.668;2023-02-17T00:22:00;100408.44;;;-10.86;67.23
45369;BME280;51342;55.250;37.668;2023-02-17T00:24:33;100420.25;;;-10.79;67.44
45369;BME280;51342;55.250;37.668;2023-02-17T00:27:07;100415.72;;;-10.82;67.20
45369;BME280;51342;55.250;37.668;2023-02-17T00:29:38;100421.16;;;-10.79;67.37
45369;BME280;51342;55.250;37.668;2023-02-17T00:32:11;100415.28;;;-10.74;67.49
45369;BME280;51342;55.250;37.668;2023-02-17T00:34:42;100423.94;;;-10.60;67.41
45369;BME280;51342;55.250;37.668;2023-02-17T00:37:15;100423.00;;;-10.55;67.42
45369;BME280;51342;55.250;37.668;2023-02-17T00:39:47;100420.75;;;-10.54;67.46
45369;BME280;51342;55.250;37.668;2023-02-17T00:42:18;100419.84;;;-10.54;67.02
45369;BME280;51342;55.250;37.668;2023-02-17T00:44:49;100417.09;;;-10.61;67.36
45369;BME280;51342;55.250;37.668;2023-02-17T00:47:24;100417.34;;;-10.65;67.56
45369;BME280;51342;55.250;37.668;2023-02-17T00:49:56;100412.78;;;-10.62;67.62
45369;BME280;51342;55.250;37.668;2023-02-17T00:52:27;100410.28;;;-10.62;67.40
45369;BME280;51342;55.250;37.668;2023-02-17T00:54:58;100410.97;;;-10.63;67.62
45369;BME280;51342;55.250;37.668;2023-02-17T00:57:30;100408.69;;;-10.68;67.63
45369;BME280;51342;55.250;37.668;2023-02-17T01:00:05;100400.97;;;-10.75;67.76
45369;BME280;51342;55.250;37.668;2023-02-17T01:02:38;100403.94;;;-10.77;67.88
45369;BME280;51342;55.250;37.668;2023-02-17T01:05:09;100406.16;;;-10.79;67.90
45369;BME280;51342;55.250;37.668;2023-02-17T01:07:40;100396.16;;;-10.79;67.91
45369;BME280;51342;55.250;37.668;2023-02-17T01:10:12;100389.38;;;-10.80;68.03
45369;BME280;51342;55.250;37.668;2023-02-17T01:12:45;100397.97;;;-10.78;67.95
45369;BME280;51342;55.250;37.668;2023-02-17T01:15:17;100385.25;;;-10.85;67.83
45369;BME280;51342;55.250;37.668;2023-02-17T01:17:48;100393.91;;;-10.83;68.04
45369;BME280;51342;55.250;37.668;2023-02-17T01:20:20;100389.56;;;-10.89;67.97
45369;BME280;51342;55.250;37.668;2023-02-17T01:22:51;100378.22;;;-10.99;68.18
45369;BME280;51342;55.250;37.668;2023-02-17T01:25:23;100388.66;;;-10.96;68.20
45369;BME280;51342;55.250;37.668;2023-02-17T01:27:54;100405.91;;;-11.03;67.88
45369;BME280;51342;55.250;37.668;2023-02-17T01:30:25;100384.75;;;-11.16;68.06
45369;BME280;51342;55.250;37.668;2023-02-17T01:32:57;100398.16;;;-11.15;68.12
45369;BME280;51342;55.250;37.668;2023-02-17T01:35:32;100386.56;;;-11.20;68.12
45369;BME280;51342;55.250;37.668;2023-02-17T01:38:04;100399.28;;;-11.19;68.00
45369;BME280;51342;55.250;37.668;2023-02-17T01:40:35;100385.84;;;-11.25;68.03
45369;BME280;51342;55.250;37.668;2023-02-17T01:43:15;100396.31;;;-11.22;67.76
45369;BME280;51342;55.250;37.668;2023-02-17T01:45:52;100401.06;;;-11.24;67.72
45369;BME280;51342;55.250;37.668;2023-02-17T01:48:30;100395.63;;;-11.27;67.86
45369;BME280;51342;55.250;37.668;2023-02-17T01:51:09;100396.31;;;-11.28;67.68
45369;BME280;51342;55.250;37.668;2023-02-17T01:56:15;100404.03;;;-11.26;67.87
45369;BME280;51342;55.250;37.668;2023-02-17T01:59:02;100412.66;;;-11.18;67.60
45369;BME280;51342;55.250;37.668;2023-02-17T02:01:35;100404.47;;;-11.17;67.43
45369;BME280;51342;55.250;37.668;2023-02-17T02:04:08;100410.19;;;-11.13;67.62
45369;BME280;51342;55.250;37.668;2023-02-17T02:06:41;100402.00;;;-11.12;67.53
45369;BME280;51342;55.250;37.668;2023-02-17T02:11:49;100405.00;;;-11.03;67.58
45369;BME280;51342;55.250;37.668;2023-02-17T02:14:21;100406.81;;;-11.02;67.56
45369;BME280;51342;55.250;37.668;2023-02-17T02:34:16;100380.91;;;-11.03;67.98
45369;BME280;51342;55.250;37.668;2023-02-17T02:37:08;100403.66;;;-10.90;67.91
45369;BME280;51342;55.250;37.668;2023-02-17T02:39:46;100399.81;;;-10.82;67.82
45369;BME280;51342;55.250;37.668;2023-02-17T02:42:22;100402.78;;;-10.74;67.79
45369;BME280;51342;55.250;37.668;2023-02-17T02:44:55;100394.84;;;-10.71;67.81
45369;BME280;51342;55.250;37.668;2023-02-17T02:50:16;100400.28;;;-10.62;67.65
45369;BME280;51342;55.250;37.668;2023-02-17T02:53:17;100399.16;;;-10.59;67.63
45369;BME280;51342;55.250;37.668;2023-02-17T02:56:10;100402.09;;;-10.50;67.84
45369;BME280;51342;55.250;37.668;2023-02-17T03:04:49;100412.56;;;-10.47;68.13
45369;BME280;51342;55.250;37.668;2023-02-17T03:07:26;100401.88;;;-10.46;67.89
45369;BME280;51342;55.250;37.668;2023-02-17T03:09:59;100399.16;;;-10.42;68.07
45369;BME280;51342;55.250;37.668;2023-02-17T03:12:32;100407.38;;;-10.43;68.07
45369;BME280;51342;55.250;37.668;2023-02-17T03:15:20;100410.09;;;-10.47;68.17
45369;BME280;51342;55.250;37.668;2023-02-17T03:17:58;100403.25;;;-10.54;68.11
45369;BME280;51342;55.250;37.668;2023-02-17T03:20:35;100407.59;;;-10.42;68.13
45369;BME280;51342;55.250;37.668;2023-02-17T03:23:08;100393.25;;;-10.43;68.32
45369;BME280;51342;55.250;37.668;2023-02-17T03:25:40;100380.50;;;-10.44;68.34
45369;BME280;51342;55.250;37.668;2023-02-17T03:28:13;100387.09;;;-10.39;68.44
45369;BME280;51342;55.250;37.668;2023-02-17T03:30:45;100389.84;;;-10.37;68.27
45369;BME280;51342;55.250;37.668;2023-02-17T03:33:17;100395.28;;;-10.34;68.28
45369;BME280;51342;55.250;37.668;2023-02-17T03:35:48;100391.88;;;-10.35;68.50
45369;BME280;51342;55.250;37.668;2023-02-17T03:38:20;100376.41;;;-10.38;68.46
45369;BME280;51342;55.250;37.668;2023-02-17T03:40:51;100389.59;;;-10.33;68.63
45369;BME280;51342;55.250;37.668;2023-02-17T03:43:23;100387.78;;;-10.34;68.50
45369;BME280;51342;55.250;37.668;2023-02-17T03:45:55;100392.09;;;-10.33;68.67
45369;BME280;51342;55.250;37.668;2023-02-17T03:48:26;100392.34;;;-10.32;68.62
45369;BME280;51342;55.250;37.668;2023-02-17T03:50:58;100388.25;;;-10.31;68.74
45369;BME280;51342;55.250;37.668;2023-02-17T03:53:29;100385.06;;;-10.25;68.63
45369;BME280;51342;55.250;37.668;2023-02-17T03:56:01;100380.97;;;-10.30;68.62
45369;BME280;51342;55.250;37.668;2023-02-17T03:58:32;100385.75;;;-10.26;68.73
45369;BME280;51342;55.250;37.668;2023-02-17T04:01:06;100394.56;;;-10.17;68.77
45369;BME280;51342;55.250;37.668;2023-02-17T04:03:38;100385.03;;;-10.19;68.97
45369;BME280;51342;55.250;37.668;2023-02-17T04:06:12;100390.25;;;-10.18;68.66
45369;BME280;51342;55.250;37.668;2023-02-17T04:08:44;100394.56;;;-10.17;68.82
45369;BME280;51342;55.250;37.668;2023-02-17T04:11:15;100391.63;;;-10.14;68.90
45369;BME280;51342;55.250;37.668;2023-02-17T04:13:46;100406.38;;;-10.04;68.73
45369;BME280;51342;55.250;37.668;2023-02-17T04:16:18;100387.50;;;-10.02;68.79
45369;BME280;51342;55.250;37.668;2023-02-17T04:18:49;100392.03;;;-9.94;68.82
45369;BME280;51342;55.250;37.668;2023-02-17T04:21:21;100401.59;;;-9.86;68.80
45369;BME280;51342;55.250;37.668;2023-02-17T04:23:52;100399.28;;;-9.79;68.73
45369;BME280;51342;55.250;37.668;2023-02-17T04:26:25;100392.47;;;-9.80;68.64
45369;BME280;51342;55.250;37.668;2023-02-17T04:28:56;100397.69;;;-9.78;68.70
45369;BME280;51342;55.250;37.668;2023-02-17T04:31:28;100395.41;;;-9.82;68.91
45369;BME280;51342;55.250;37.668;2023-02-17T04:33:59;100391.78;;;-9.79;68.97
45369;BME280;51342;55.250;37.668;2023-02-17T04:36:30;100389.47;;;-9.77;68.92
45369;BME280;51342;55.250;37.668;2023-02-17T04:39:02;100397.19;;;-9.76;69.06
45369;BME280;51342;55.250;37.668;2023-02-17T04:41:33;100390.63;;;-9.75;68.94
45369;BME280;51342;55.250;37.668;2023-02-17T04:44:05;100386.25;;;-9.71;69.28
45369;BME280;51342;55.250;37.668;2023-02-17T04:46:36;100394.00;;;-9.64;69.17
45369;BME280;51342;55.250;37.668;2023-02-17T04:49:07;100382.13;;;-9.59;69.15
45369;BME280;51342;55.250;37.668;2023-02-17T04:51:40;100387.13;;;-9.53;69.14
45369;BME280;51342;55.250;37.668;2023-02-17T04:54:12;100383.00;;;-9.47;69.31
45369;BME280;51342;55.250;37.668;2023-02-17T04:56:43;100391.44;;;-9.41;69.12
45369;BME280;51342;55.250;37.668;2023-02-17T04:59:15;100399.13;;;-9.34;69.25
45369;BME280;51342;55.250;37.668;2023-02-17T05:01:47;100399.09;;;-9.28;69.34
45369;BME280;51342;55.250;37.668;2023-02-17T05:04:18;100396.56;;;-9.23;69.17
45369;BME280;51342;55.250;37.668;2023-02-17T05:06:50;100400.66;;;-9.18;69.46
45369;BME280;51342;55.250;37.668;2023-02-17T05:09:22;100388.53;;;-9.15;69.57
45369;BME280;51342;55.250;37.668;2023-02-17T05:11:53;100384.19;;;-9.10;69.30
45369;BME280;51342;55.250;37.668;2023-02-17T05:14:26;100385.75;;;-8.99;69.50
45369;BME280;51342;55.250;37.668;2023-02-17T05:16:58;100390.94;;;-8.92;69.84
45369;BME280;51342;55.250;37.668;2023-02-17T05:19:30;100396.56;;;-8.82;69.71
45369;BME280;51342;55.250;37.668;2023-02-17T05:22:04;100400.16;;;-8.74;69.72
45369;BME280;51342;55.250;37.668;2023-02-17T05:24:35;100392.38;;;-8.70;70.14
45369;BME280;51342;55.250;37.668;2023-02-17T05:27:07;100399.88;;;-8.65;70.00
45369;BME280;51342;55.250;37.668;2023-02-17T05:29:39;100400.97;;;-8.63;69.97
45369;BME280;51342;55.250;37.668;2023-02-17T05:32:11;100395.31;;;-8.62;69.97
45369;BME280;51342;55.250;37.668;2023-02-17T05:34:43;100397.06;;;-8.55;70.13
45369;BME280;51342;55.250;37.668;2023-02-17T05:37:14;100395.69;;;-8.53;70.12
45369;BME280;51342;55.250;37.668;2023-02-17T05:39:46;100399.06;;;-8.47;70.13
45369;BME280;51342;55.250;37.668;2023-02-17T05:42:17;100398.84;;;-8.48;70.41
45369;BME280;51342;55.250;37.668;2023-02-17T05:44:49;100402.47;;;-8.46;70.43
45369;BME280;51342;55.250;37.668;2023-02-17T05:47:21;100406.75;;;-8.40;70.33
45369;BME280;51342;55.250;37.668;2023-02-17T05:49:53;100398.75;;;-8.37;70.53
45369;BME280;51342;55.250;37.668;2023-02-17T05:52:24;100395.47;;;-8.31;70.46
45369;BME280;51342;55.250;37.668;2023-02-17T05:54:56;100392.97;;;-8.31;70.66
45369;BME280;51342;55.250;37.668;2023-02-17T05:57:27;100384.28;;;-8.27;70.70
45369;BME280;51342;55.250;37.668;2023-02-17T05:59:59;100393.81;;;-8.24;70.50
45369;BME280;51342;55.250;37.668;2023-02-17T06:02:30;100399.03;;;-8.23;70.48
45369;BME280;51342;55.250;37.668;2023-02-17T06:05:01;100401.09;;;-8.20;70.64
45369;BME280;51342;55.250;37.668;2023-02-17T06:07:33;100403.59;;;-8.20;70.59
45369;BME280;51342;55.250;37.668;2023-02-17T06:10:05;100395.38;;;-8.19;70.50
45369;BME280;51342;55.250;37.668;2023-02-17T06:12:36;100402.66;;;-8.15;70.73
45369;BME280;51342;55.250;37.668;2023-02-17T06:15:09;100403.50;;;-8.09;70.53
45369;BME280;51342;55.250;37.668;2023-02-17T06:17:41;100398.44;;;-8.04;70.52
45369;BME280;51342;55.250;37.668;2023-02-17T06:20:13;100407.47;;;-7.93;70.57
45369;BME280;51342;55.250;37.668;2023-02-17T06:22:44;100402.78;;;-7.84;70.54
45369;BME280;51342;55.250;37.668;2023-02-17T06:25:16;100397.25;;;-7.76;70.42
45369;BME280;51342;55.250;37.668;2023-02-17T06:27:47;100394.88;;;-7.69;70.60
45369;BME280;51342;55.250;37.668;2023-02-17T06:30:19;100381.34;;;-7.64;70.36
45369;BME280;51342;55.250;37.668;2023-02-17T06:32:51;100388.13;;;-7.57;70.32
45369;BME280;51342;55.250;37.668;2023-02-17T06:35:24;100389.88;;;-7.51;70.47
45369;BME280;51342;55.250;37.668;2023-02-17T06:37:55;100397.53;;;-7.43;70.32
45369;BME280;51342;55.250;37.668;2023-02-17T06:40:28;100388.44;;;-7.43;70.42
45369;BME280;51342;55.250;37.668;2023-02-17T06:43:00;100391.13;;;-7.41;70.38
45369;BME280;51342;55.250;37.668;2023-02-17T06:45:32;100389.03;;;-7.38;70.34
45369;BME280;51342;55.250;37.668;2023-02-17T06:48:04;100391.28;;;-7.34;70.40
45369;BME280;51342;55.250;37.668;2023-02-17T06:50:36;100387.09;;;-7.28;70.55
45369;BME280;51342;55.250;37.668;2023-02-17T06:53:07;100386.75;;;-7.18;70.63
45369;BME280;51342;55.250;37.668;2023-02-17T06:55:39;100388.75;;;-7.16;70.58
45369;BME280;51342;55.250;37.668;2023-02-17T07:13:09;100374.09;;;-5.74;66.98
45369;BME280;51342;55.250;37.668;2023-02-17T07:15:41;100375.75;;;-6.00;67.88
45369;BME280;51342;55.250;37.668;2023-02-17T07:18:12;100378.75;;;-6.03;68.47
45369;BME280;51342;55.250;37.668;2023-02-17T07:20:44;100373.91;;;-6.01;68.65
45369;BME280;51342;55.250;37.668;2023-02-17T07:23:15;100375.06;;;-5.99;68.79
45369;BME280;51342;55.250;37.668;2023-02-17T07:25:47;100386.41;;;-5.96;68.58
45369;BME280;51342;55.250;37.668;2023-02-17T07:28:18;100377.66;;;-5.92;68.72
45369;BME280;51342;55.250;37.668;2023-02-17T07:30:50;100378.63;;;-5.84;68.78
45369;BME280;51342;55.250;37.668;2023-02-17T07:33:21;100366.16;;;-5.77;68.85
45369;BME280;51342;55.250;37.668;2023-02-17T07:35:53;100375.69;;;-5.62;68.56
45369;BME280;51342;55.250;37.668;2023-02-17T07:38:24;100367.41;;;-5.48;68.46
45369;BME280;51342;55.250;37.668;2023-02-17T07:40:56;100364.66;;;-5.37;68.26
45369;BME280;51342;55.250;37.668;2023-02-17T07:43:27;100363.19;;;-5.22;68.15
45369;BME280;51342;55.250;37.668;2023-02-17T07:46:01;100363.59;;;-4.99;68.14
45369;BME280;51342;55.250;37.668;2023-02-17T07:48:32;100359.56;;;-4.92;67.77
45369;BME280;51342;55.250;37.668;2023-02-17T07:51:12;100353.84;;;-4.84;67.45
45369;BME280;51342;55.250;37.668;2023-02-17T07:53:44;100356.88;;;-4.66;67.42
45369;BME280;51342;55.250;37.668;2023-02-17T07:56:17;100360.41;;;-4.59;67.25
45369;BME280;51342;55.250;37.668;2023-02-17T07:58:49;100359.41;;;-4.66;67.38
45369;BME280;51342;55.250;37.668;2023-02-17T08:01:22;100357.09;;;-4.65;67.49
45369;BME280;51342;55.250;37.668;2023-02-17T08:03:55;100352.81;;;-4.59;67.43
45369;BME280;51342;55.250;37.668;2023-02-17T08:06:27;100347.00;;;-4.65;67.26
45369;BME280;51342;55.250;37.668;2023-02-17T08:08:58;100355.94;;;-4.74;67.19
45369;BME280;51342;55.250;37.668;2023-02-17T08:11:48;100349.19;;;-4.81;67.45
45369;BME280;51342;55.250;37.668;2023-02-17T08:14:38;100350.59;;;-4.83;67.34
45369;BME280;51342;55.250;37.668;2023-02-17T08:17:09;100358.72;;;-4.85;67.37
45369;BME280;51342;55.250;37.668;2023-02-17T08:19:41;100351.25;;;-4.91;67.10
45369;BME280;51342;55.250;37.668;2023-02-17T08:22:12;100358.44;;;-4.94;67.28
45369;BME280;51342;55.250;37.668;2023-02-17T08:24:44;100351.97;;;-4.92;67.06
45369;BME280;51342;55.250;37.668;2023-02-17T08:27:15;100358.13;;;-4.90;67.13
45369;BME280;51342;55.250;37.668;2023-02-17T08:29:47;100344.41;;;-4.92;66.86
45369;BME280;51342;55.250;37.668;2023-02-17T08:32:18;100352.16;;;-4.90;66.82
45369;BME280;51342;55.250;37.668;2023-02-17T08:34:50;100361.34;;;-4.91;66.99
45369;BME280;51342;55.250;37.668;2023-02-17T08:37:24;100358.13;;;-4.90;66.83
45369;BME280;51342;55.250;37.668;2023-02-17T08:39:56;100342.59;;;-4.93;66.96
45369;BME280;51342;55.250;37.668;2023-02-17T08:42:30;100354.13;;;-4.75;66.56
45369;BME280;51342;55.250;37.668;2023-02-17T08:45:03;100353.63;;;-4.65;66.53
45369;BME280;51342;55.250;37.668;2023-02-17T08:47:35;100352.09;;;-4.58;66.11
45369;BME280;51342;55.250;37.668;2023-02-17T08:50:08;100356.69;;;-4.48;66.00
45369;BME280;51342;55.250;37.668;2023-02-17T08:52:39;100364.31;;;-4.41;65.93
45369;BME280;51342;55.250;37.668;2023-02-17T08:55:11;100356.94;;;-4.39;65.81
45369;BME280;51342;55.250;37.668;2023-02-17T08:57:43;100352.63;;;-4.33;65.70
45369;BME280;51342;55.250;37.668;2023-02-17T09:00:15;100354.81;;;-4.36;65.74
45369;BME280;51342;55.250;37.668;2023-02-17T09:02:47;100357.09;;;-4.38;65.56
45369;BME280;51342;55.250;37.668;2023-02-17T09:05:19;100350.22;;;-4.46;65.51
45369;BME280;51342;55.250;37.668;2023-02-17T09:07:50;100351.50;;;-4.42;65.54
45369;BME280;51342;55.250;37.668;2023-02-17T09:10:22;100345.53;;;-4.43;65.34
45369;BME280;51342;55.250;37.668;2023-02-17T09:12:53;100335.38;;;-4.50;65.44
45369;BME280;51342;55.250;37.668;2023-02-17T09:15:25;100338.34;;;-4.40;65.68
45369;BME280;51342;55.250;37.668;2023-02-17T09:17:56;100344.03;;;-4.28;65.52
45369;BME280;51342;55.250;37.668;2023-02-17T09:20:28;100351.84;;;-4.19;65.36
45369;BME280;51342;55.250;37.668;2023-02-17T09:23:00;100345.03;;;-4.13;65.33
45369;BME280;51342;55.250;37.668;2023-02-17T09:25:31;100341.97;;;-4.11;64.98
45369;BME280;51342;55.250;37.668;2023-02-17T09:28:03;100342.66;;;-4.19;64.99
45369;BME280;51342;55.250;37.668;2023-02-17T09:30:34;100336.69;;;-4.19;65.07
45369;BME280;51342;55.250;37.668;2023-02-17T09:33:06;100334.72;;;-4.15;64.95
45369;BME280;51342;55.250;37.668;2023-02-17T09:35:38;100336.41;;;-4.08;64.85
45369;BME280;51342;55.250;37.668;2023-02-17T09:38:09;100334.19;;;-4.12;64.61
45369;BME280;51342;55.250;37.668;2023-02-17T09:40:46;100343.00;;;-4.16;64.63
45369;BME280;51342;55.250;37.668;2023-02-17T09:43:25;100335.97;;;-4.18;64.58
45369;BME280;51342;55.250;37.668;2023-02-17T09:46:06;100336.56;;;-4.14;64.76
45369;BME280;51342;55.250;37.668;2023-02-17T09:48:41;100334.06;;;-4.07;64.91
45369;BME280;51342;55.250;37.668;2023-02-17T09:54:02;100336.63;;;-4.00;64.97
45369;BME280;51342;55.250;37.668;2023-02-17T09:56:38;100332.84;;;-3.96;64.62
45369;BME280;51342;55.250;37.668;2023-02-17T09:59:17;100325.22;;;-4.03;64.40
45369;BME280;51342;55.250;37.668;2023-02-17T10:01:51;100329.03;;;-4.00;64.50
45369;BME280;51342;55.250;37.668;2023-02-17T10:04:34;100324.53;;;-4.02;64.46
45369;BME280;51342;55.250;37.668;2023-02-17T10:07:14;100318.75;;;-4.01;64.31
45369;BME280;51342;55.250;37.668;2023-02-17T10:10:10;100319.09;;;-3.98;64.32
45369;BME280;51342;55.250;37.668;2023-02-17T10:12:44;100310.28;;;-3.94;64.32
45369;BME280;51342;55.250;37.668;2023-02-17T10:15:37;100304.47;;;-4.01;64.08
45369;BME280;51342;55.250;37.668;2023-02-17T10:18:16;100314.28;;;-3.89;64.03
45369;BME280;51342;55.250;37.668;2023-02-17T10:20:55;100306.38;;;-3.85;63.94
45369;BME280;51342;55.250;37.668;2023-02-17T10:23:29;100294.50;;;-3.72;63.68
45369;BME280;51342;55.250;37.668;2023-02-17T10:28:52;100297.13;;;-3.51;63.32
45369;BME280;51342;55.250;37.668;2023-02-17T10:31:43;100299.25;;;-3.47;62.98
45369;BME280;51342;55.250;37.668;2023-02-17T10:37:10;100290.03;;;-3.53;63.06
45369;BME280;51342;55.250;37.668;2023-02-17T10:39:48;100300.16;;;-3.46;63.21
45369;BME280;51342;55.250;37.668;2023-02-17T10:42:29;100295.34;;;-3.37;63.17
45369;BME280;51342;55.250;37.668;2023-02-17T10:47:46;100289.22;;;-3.18;62.96
45369;BME280;51342;55.250;37.668;2023-02-17T10:50:20;100280.03;;;-3.17;62.67
45369;BME280;51342;55.250;37.668;2023-02-17T10:52:53;100268.25;;;-3.24;62.42
45369;BME280;51342;55.250;37.668;2023-02-17T10:55:37;100266.94;;;-3.35;62.48
45369;BME280;51342;55.250;37.668;2023-02-17T10:58:51;100271.28;;;-3.41;62.74
45369;BME280;51342;55.250;37.668;2023-02-17T11:01:27;100263.16;;;-3.38;62.39
45369;BME280;51342;55.250;37.668;2023-02-17T11:04:07;100260.09;;;-3.43;62.29
45369;BME280;51342;55.250;37.668;2023-02-17T11:06:51;100262.59;;;-3.43;62.24
45369;BME280;51342;55.250;37.668;2023-02-17T11:09:27;100263.16;;;-3.38;62.31
45369;BME280;51342;55.250;37.668;2023-02-17T11:12:14;100261.72;;;-3.29;62.40
45369;BME280;51342;55.250;37.668;2023-02-17T11:14:52;100263.22;;;-3.17;61.84
45369;BME280;51342;55.250;37.668;2023-02-17T11:20:04;100256.91;;;-2.99;61.27
45369;BME280;51342;55.250;37.668;2023-02-17T11:22:39;100264.84;;;-2.96;61.60
45369;BME280;51342;55.250;37.668;2023-02-17T11:27:56;100254.16;;;-2.86;60.99
45369;BME280;51342;55.250;37.668;2023-02-17T11:30:29;100258.16;;;-2.81;60.83
45369;BME280;51342;55.250;37.668;2023-02-17T11:33:19;100255.25;;;-2.84;60.77
45369;BME280;51342;55.250;37.668;2023-02-17T11:35:53;100255.97;;;-2.78;60.85
45369;BME280;51342;55.250;37.668;2023-02-17T11:38:28;100251.63;;;-2.79;60.49
45369;BME280;51342;55.250;37.668;2023-02-17T11:41:04;100253.63;;;-2.77;60.91
45369;BME280;51342;55.250;37.668;2023-02-17T11:43:38;100251.09;;;-2.70;60.82
45369;BME280;51342;55.250;37.668;2023-02-17T11:49:01;100253.25;;;-2.65;60.23
45369;BME280;51342;55.250;37.668;2023-02-17T11:51:53;100239.31;;;-2.69;60.13
45369;BME280;51342;55.250;37.668;2023-02-17T11:54:45;100240.25;;;-2.76;60.09
45369;BME280;51342;55.250;37.668;2023-02-17T11:57:39;100236.09;;;-2.82;60.21
45369;BME280;51342;55.250;37.668;2023-02-17T12:03:17;100240.06;;;-2.77;60.18
45369;BME280;51342;55.250;37.668;2023-02-17T12:09:06;100222.72;;;-2.81;60.07
45369;BME280;51342;55.250;37.668;2023-02-17T12:11:55;100240.97;;;-2.77;60.13
45369;BME280;51342;55.250;37.668;2023-02-17T12:32:56;100228.84;;;-3.01;60.35
45369;BME280;51342;55.250;37.668;2023-02-17T12:35:23;100226.13;;;-3.02;60.34
45369;BME280;51342;55.250;37.668;2023-02-17T12:37:59;100230.13;;;-3.04;60.11
45369;BME280;51342;55.250;37.668;2023-02-17T12:40:38;100231.03;;;-3.11;60.34
45369;BME280;51342;55.250;37.668;2023-02-17T12:43:40;100232.63;;;-3.18;60.42
45369;BME280;51342;55.250;37.668;2023-02-17T12:46:24;100228.66;;;-3.24;60.79
45369;BME280;51342;55.250;37.668;2023-02-17T12:55:19;100226.13;;;-3.24;61.28
45369;BME280;51342;55.250;37.668;2023-02-17T12:58:11;100225.59;;;-3.28;61.37
45369;BME280;51342;55.250;37.668;2023-02-17T13:00:49;100224.53;;;-3.23;61.41
45369;BME280;51342;55.250;37.668;2023-02-17T13:03:23;100216.00;;;-3.24;61.70
45369;BME280;51342;55.250;37.668;2023-02-17T13:08:40;100218.34;;;-3.25;61.46
45369;BME280;51342;55.250;37.668;2023-02-17T13:11:29;100222.19;;;-3.29;61.53
45369;BME280;51342;55.250;37.668;2023-02-17T13:16:51;100210.03;;;-3.31;61.81
45369;BME280;51342;55.250;37.668;2023-02-17T13:19:31;100214.75;;;-3.34;62.02
45369;BME280;51342;55.250;37.668;2023-02-17T13:22:02;100212.41;;;-3.33;61.92
45369;BME280;51342;55.250;37.668;2023-02-17T13:24:50;100208.59;;;-3.36;61.92
45369;BME280;51342;55.250;37.668;2023-02-17T13:30:25;100215.28;;;-3.44;62.15
45369;BME280;51342;55.250;37.668;2023-02-17T13:33:04;100214.56;;;-3.50;62.22
45369;BME280;51342;55.250;37.668;2023-02-17T13:35:36;100208.59;;;-3.51;62.39
45369;BME280;51342;55.250;37.668;2023-02-17T13:38:09;100208.38;;;-3.52;62.45
45369;BME280;51342;55.250;37.668;2023-02-17T13:40:42;100208.22;;;-3.54;62.38
45369;BME280;51342;55.250;37.668;2023-02-17T13:43:15;100207.13;;;-3.56;62.42
45369;BME280;51342;55.250;37.668;2023-02-17T13:45:59;100204.94;;;-3.60;62.45
45369;BME280;51342;55.250;37.668;2023-02-17T13:48:33;100206.91;;;-3.64;62.60
45369;BME280;51342;55.250;37.668;2023-02-17T13:51:06;100201.84;;;-3.71;62.76
45369;BME280;51342;55.250;37.668;2023-02-17T13:53:41;100201.47;;;-3.75;62.51
45369;BME280;51342;55.250;37.668;2023-02-17T13:59:28;100200.53;;;-3.96;62.75
45369;BME280;51342;55.250;37.668;2023-02-17T14:01:59;100202.69;;;-3.92;62.78
45369;BME280;51342;55.250;37.668;2023-02-17T14:04:31;100193.28;;;-4.01;62.96
45369;BME280;51342;55.250;37.668;2023-02-17T14:07:03;100205.75;;;-4.02;62.83
45369;BME280;51342;55.250;37.668;2023-02-17T14:09:35;100201.75;;;-4.07;63.08
45369;BME280;51342;55.250;37.668;2023-02-17T14:12:22;100193.78;;;-4.17;62.85
45369;BME280;51342;55.250;37.668;2023-02-17T14:14:56;100193.38;;;-4.20;62.95
45369;BME280;51342;55.250;37.668;2023-02-17T14:17:31;100180.38;;;-4.31;62.97
45369;BME280;51342;55.250;37.668;2023-02-17T14:20:03;100185.94;;;-4.33;62.99
45369;BME280;51342;55.250;37.668;2023-02-17T14:22:35;100189.88;;;-4.42;62.88
45369;BME280;51342;55.250;37.668;2023-02-17T14:25:12;100186.69;;;-4.61;62.66
45369;BME280;51342;55.250;37.668;2023-02-17T14:27:47;100187.72;;;-4.73;63.06
45369;BME280;51342;55.250;37.668;2023-02-17T14:30:48;100187.38;;;-4.96;63.18
45369;BME280;51342;55.250;37.668;2023-02-17T14:33:23;100179.03;;;-5.02;62.98
45369;BME280;51342;55.250;37.668;2023-02-17T14:36:00;100186.16;;;-5.13;63.05
45369;BME280;51342;55.250;37.668;2023-02-17T14:38:40;100184.06;;;-5.29;63.18
45369;BME280;51342;55.250;37.668;2023-02-17T14:41:12;100182.69;;;-5.40;63.34
45369;BME280;51342;55.250;37.668;2023-02-17T14:43:43;100186.38;;;-5.51;63.38
45369;BME280;51342;55.250;37.668;2023-02-17T14:46:15;100191.56;;;-5.56;63.42
45369;BME280;51342;55.250;37.668;2023-02-17T14:48:49;100188.47;;;-5.61;63.19
45369;BME280;51342;55.250;37.668;2023-02-17T14:51:24;100185.88;;;-5.68;62.72
45369;BME280;51342;55.250;37.668;2023-02-17T14:53:56;100189.66;;;-5.84;63.14
45369;BME280;51342;55.250;37.668;2023-02-17T14:56:32;100193.88;;;-5.98;63.33
45369;BME280;51342;55.250;37.668;2023-02-17T14:59:05;100190.69;;;-6.09;63.29
45369;BME280;51342;55.250;37.668;2023-02-17T15:01:36;100190.31;;;-6.25;63.37
45369;BME280;51342;55.250;37.668;2023-02-17T15:04:08;100192.66;;;-6.39;63.64
45369;BME280;51342;55.250;37.668;2023-02-17T15:06:42;100207.19;;;-6.57;63.47